sensor_id;sensor_type;location;lat;lon;timestamp;P1;durP1;ratioP1;P2;durP2;ratioP2
3941;SDS011;1985;48.592;8.850;2023-02-15T00:01:36;27.75;;;11.70;;
3941;SDS011;1985;48.592;8.850;2023-02-15T00:04:02;27.55;;;11.23;;
3941;SDS011;1985;48.592;8.850;2023-02-15T00:06:29;25.42;;;10.75;;
3941;SDS011;1985;48.592;8.850;2023-02-15T00:08:55;27.73;;;11.70;;
3941;SDS011;1985;48.592;8.850;2023-02-15T00:11:21;26.47;;;11.23;;
3941;SDS011;1985;48.592;8.850;2023-02-15T00:14:09;30.10;;;11.55;;
3941;SDS011;1985;48.592;8.850;2023-02-15T00:16:40;29.30;;;11.20;;
3941;SDS011;1985;48.592;8.850;2023-02-15T00:19:07;27.98;;;13.23;;
3941;SDS011;1985;48.592;8.850;2023-02-15T00:21:35;29.02;;;12.05;;
3941;SDS011;1985;48.592;8.850;2023-02-15T00:24:02;31.45;;;12.25;;
3941;SDS011;1985;48.592;8.850;2023-02-15T00:26:30;33.22;;;11.85;;
3941;SDS011;1985;48.592;8.850;2023-02-15T00:28:55;26.45;;;10.77;;
3941;SDS011;1985;48.592;8.850;2023-02-15T00:31:23;24.95;;;10.43;;
3941;SDS011;1985;48.592;8.850;2023-02-15T00:33:49;27.95;;;11.20;;
3941;SDS011;1985;48.592;8.850;2023-02-15T00:36:15;28.05;;;12.65;;
3941;SDS011;1985;48.592;8.850;2023-02-15T00:38:41;27.57;;;11.77;;
3941;SDS011;1985;48.592;8.850;2023-02-15T00:41:07;34.37;;;13.10;;
3941;SDS011;1985;48.592;8.850;2023-02-15T00:43:34;29.15;;;11.95;;
3941;SDS011;1985;48.592;8.850;2023-02-15T00:46:00;31.10;;;12.57;;
3941;SDS011;1985;48.592;8.850;2023-02-15T00:48:27;29.30;;;12.23;;
3941;SDS011;1985;48.592;8.850;2023-02-15T00:50:54;27.73;;;12.17;;
3941;SDS011;1985;48.592;8.850;2023-02-15T00:53:21;29.57;;;13.80;;
3941;SDS011;1985;48.592;8.850;2023-02-15T00:55:46;27.03;;;12.00;;
3941;SDS011;1985;48.592;8.850;2023-02-15T00:58:12;27.38;;;12.18;;
3941;SDS011;1985;48.592;8.850;2023-02-15T01:00:39;29.05;;;11.55;;
3941;SDS011;1985;48.592;8.850;2023-02-15T01:03:06;30.38;;;13.07;;
3941;SDS011;1985;48.592;8.850;2023-02-15T01:05:32;33.70;;;12.38;;
3941;SDS011;1985;48.592;8.850;2023-02-15T01:07:58;36.08;;;15.38;;
3941;SDS011;1985;48.592;8.850;2023-02-15T01:10:24;37.30;;;14.20;;
3941;SDS011;1985;48.592;8.850;2023-02-15T01:12:50;33.37;;;14.73;;
3941;SDS011;1985;48.592;8.850;2023-02-15T01:15:17;32.05;;;13.60;;
3941;SDS011;1985;48.592;8.850;2023-02-15T01:17:43;32.00;;;14.18;;
3941;SDS011;1985;48.592;8.850;2023-02-15T01:20:10;32.47;;;14.48;;
3941;SDS011;1985;48.592;8.850;2023-02-15T01:22:36;35.30;;;14.38;;
3941;SDS011;1985;48.592;8.850;2023-02-15T01:25:02;34.97;;;15.15;;
3941;SDS011;1985;48.592;8.850;2023-02-15T01:27:28;38.00;;;15.20;;
3941;SDS011;1985;48.592;8.850;2023-02-15T01:29:55;30.40;;;14.13;;
3941;SDS011;1985;48.592;8.850;2023-02-15T01:32:21;32.90;;;14.70;;
3941;SDS011;1985;48.592;8.850;2023-02-15T01:34:47;35.38;;;14.57;;
3941;SDS011;1985;48.592;8.850;2023-02-15T01:37:12;29.40;;;13.40;;
3941;SDS011;1985;48.592;8.850;2023-02-15T01:39:38;30.30;;;12.73;;
3941;SDS011;1985;48.592;8.850;2023-02-15T01:42:04;31.50;;;12.40;;
3941;SDS011;1985;48.592;8.850;2023-02-15T01:44:49;27.05;;;12.52;;
3941;SDS011;1985;48.592;8.850;2023-02-15T01:47:19;32.33;;;12.73;;
3941;SDS011;1985;48.592;8.850;2023-02-15T01:49:48;33.10;;;13.30;;
3941;SDS011;1985;48.592;8.850;2023-02-15T01:52:19;32.37;;;13.40;;
3941;SDS011;1985;48.592;8.850;2023-02-15T01:54:45;31.03;;;12.40;;
3941;SDS011;1985;48.592;8.850;2023-02-15T01:57:13;31.55;;;12.40;;
3941;SDS011;1985;48.592;8.850;2023-02-15T01:59:45;30.23;;;12.57;;
3941;SDS011;1985;48.592;8.850;2023-02-15T02:02:14;27.02;;;12.45;;
3941;SDS011;1985;48.592;8.850;2023-02-15T02:04:50;28.50;;;12.27;;
3941;SDS011;1985;48.592;8.850;2023-02-15T02:07:19;31.23;;;11.82;;
3941;SDS011;1985;48.592;8.850;2023-02-15T02:09:46;26.45;;;11.52;;
3941;SDS011;1985;48.592;8.850;2023-02-15T02:12:12;29.13;;;11.75;;
3941;SDS011;1985;48.592;8.850;2023-02-15T02:14:39;25.67;;;11.35;;
3941;SDS011;1985;48.592;8.850;2023-02-15T02:35:59;28.70;;;11.40;;
3941;SDS011;1985;48.592;8.850;2023-02-15T02:48:56;34.15;;;12.32;;
3941;SDS011;1985;48.592;8.850;2023-02-15T02:51:22;27.17;;;12.57;;
3941;SDS011;1985;48.592;8.850;2023-02-15T02:53:50;28.15;;;12.25;;
3941;SDS011;1985;48.592;8.850;2023-02-15T02:56:20;26.38;;;11.05;;
3941;SDS011;1985;48.592;8.850;2023-02-15T02:58:48;27.75;;;11.45;;
3941;SDS011;1985;48.592;8.850;2023-02-15T03:03:58;27.23;;;11.80;;
3941;SDS011;1985;48.592;8.850;2023-02-15T03:06:36;26.10;;;12.25;;
3941;SDS011;1985;48.592;8.850;2023-02-15T03:09:57;28.00;;;11.40;;
3941;SDS011;1985;48.592;8.850;2023-02-15T03:12:06;27.55;;;10.80;;
3941;SDS011;1985;48.592;8.850;2023-02-15T03:14:34;27.23;;;11.38;;
3941;SDS011;1985;48.592;8.850;2023-02-15T03:17:01;26.73;;;10.77;;
3941;SDS011;1985;48.592;8.850;2023-02-15T03:19:30;25.05;;;9.55;;
3941;SDS011;1985;48.592;8.850;2023-02-15T03:22:06;24.25;;;10.63;;
3941;SDS011;1985;48.592;8.850;2023-02-15T03:24:44;23.43;;;9.77;;
3941;SDS011;1985;48.592;8.850;2023-02-15T03:27:22;27.85;;;10.93;;
3941;SDS011;1985;48.592;8.850;2023-02-15T03:29:55;23.77;;;9.63;;
3941;SDS011;1985;48.592;8.850;2023-02-15T03:32:23;26.35;;;10.90;;
3941;SDS011;1985;48.592;8.850;2023-02-15T03:34:51;24.63;;;9.98;;
3941;SDS011;1985;48.592;8.850;2023-02-15T03:37:19;23.98;;;9.90;;
3941;SDS011;1985;48.592;8.850;2023-02-15T03:40:03;22.88;;;10.45;;
3941;SDS011;1985;48.592;8.850;2023-02-15T03:43:18;25.13;;;10.15;;
3941;SDS011;1985;48.592;8.850;2023-02-15T03:45:45;21.77;;;9.07;;
3941;SDS011;1985;48.592;8.850;2023-02-15T03:48:25;26.08;;;9.93;;
3941;SDS011;1985;48.592;8.850;2023-02-15T03:50:55;19.57;;;8.87;;
3941;SDS011;1985;48.592;8.850;2023-02-15T03:53:45;22.90;;;10.35;;
3941;SDS011;1985;48.592;8.850;2023-02-15T03:56:12;26.63;;;11.20;;
3941;SDS011;1985;48.592;8.850;2023-02-15T03:58:38;25.97;;;10.63;;
3941;SDS011;1985;48.592;8.850;2023-02-15T04:04:15;23.77;;;10.65;;
3941;SDS011;1985;48.592;8.850;2023-02-15T04:06:45;24.23;;;10.90;;
3941;SDS011;1985;48.592;8.850;2023-02-15T04:09:11;25.05;;;10.38;;
3941;SDS011;1985;48.592;8.850;2023-02-15T04:11:56;23.05;;;10.25;;
3941;SDS011;1985;48.592;8.850;2023-02-15T04:14:21;23.33;;;10.35;;
3941;SDS011;1985;48.592;8.850;2023-02-15T04:17:06;22.60;;;8.88;;
3941;SDS011;1985;48.592;8.850;2023-02-15T04:19:33;25.95;;;10.10;;
3941;SDS011;1985;48.592;8.850;2023-02-15T04:22:17;34.05;;;14.27;;
3941;SDS011;1985;48.592;8.850;2023-02-15T04:25:01;33.00;;;13.20;;
3941;SDS011;1985;48.592;8.850;2023-02-15T04:27:37;32.40;;;12.77;;
3941;SDS011;1985;48.592;8.850;2023-02-15T04:30:04;33.22;;;13.63;;
3941;SDS011;1985;48.592;8.850;2023-02-15T04:32:30;29.50;;;11.83;;
3941;SDS011;1985;48.592;8.850;2023-02-15T04:34:56;26.63;;;11.50;;
3941;SDS011;1985;48.592;8.850;2023-02-15T04:37:21;26.63;;;11.30;;
3941;SDS011;1985;48.592;8.850;2023-02-15T04:39:47;24.15;;;10.68;;
3941;SDS011;1985;48.592;8.850;2023-02-15T04:42:12;25.63;;;10.13;;
3941;SDS011;1985;48.592;8.850;2023-02-15T04:44:38;21.27;;;9.80;;
3941;SDS011;1985;48.592;8.850;2023-02-15T04:47:04;24.65;;;9.88;;
3941;SDS011;1985;48.592;8.850;2023-02-15T04:49:29;25.02;;;10.50;;
3941;SDS011;1985;48.592;8.850;2023-02-15T04:51:55;27.50;;;10.87;;
3941;SDS011;1985;48.592;8.850;2023-02-15T04:54:20;25.30;;;9.63;;
3941;SDS011;1985;48.592;8.850;2023-02-15T04:56:46;27.25;;;10.48;;
3941;SDS011;1985;48.592;8.850;2023-02-15T04:59:12;27.25;;;9.32;;
3941;SDS011;1985;48.592;8.850;2023-02-15T05:01:38;25.10;;;9.48;;
3941;SDS011;1985;48.592;8.850;2023-02-15T05:04:03;23.23;;;9.50;;
3941;SDS011;1985;48.592;8.850;2023-02-15T05:06:29;26.17;;;10.73;;
3941;SDS011;1985;48.592;8.850;2023-02-15T05:08:55;28.20;;;10.47;;
3941;SDS011;1985;48.592;8.850;2023-02-15T05:11:20;25.40;;;10.35;;
3941;SDS011;1985;48.592;8.850;2023-02-15T05:13:46;27.10;;;9.82;;
3941;SDS011;1985;48.592;8.850;2023-02-15T05:16:11;22.23;;;9.40;;
3941;SDS011;1985;48.592;8.850;2023-02-15T05:18:37;25.93;;;10.40;;
3941;SDS011;1985;48.592;8.850;2023-02-15T05:21:03;21.70;;;8.90;;
3941;SDS011;1985;48.592;8.850;2023-02-15T05:23:29;27.38;;;10.65;;
3941;SDS011;1985;48.592;8.850;2023-02-15T05:25:55;34.08;;;12.48;;
3941;SDS011;1985;48.592;8.850;2023-02-15T05:28:39;32.65;;;11.90;;
3941;SDS011;1985;48.592;8.850;2023-02-15T05:31:10;41.20;;;13.80;;
3941;SDS011;1985;48.592;8.850;2023-02-15T05:33:37;50.63;;;16.27;;
3941;SDS011;1985;48.592;8.850;2023-02-15T05:36:04;53.40;;;15.55;;
3941;SDS011;1985;48.592;8.850;2023-02-15T05:38:30;52.37;;;15.97;;
3941;SDS011;1985;48.592;8.850;2023-02-15T05:40:56;49.95;;;15.10;;
3941;SDS011;1985;48.592;8.850;2023-02-15T05:43:23;46.75;;;15.27;;
3941;SDS011;1985;48.592;8.850;2023-02-15T05:45:49;49.97;;;17.23;;
3941;SDS011;1985;48.592;8.850;2023-02-15T05:48:16;76.95;;;22.33;;
3941;SDS011;1985;48.592;8.850;2023-02-15T05:50:43;83.68;;;25.00;;
3941;SDS011;1985;48.592;8.850;2023-02-15T05:53:09;99.90;;;28.42;;
3941;SDS011;1985;48.592;8.850;2023-02-15T05:55:37;85.35;;;23.85;;
3941;SDS011;1985;48.592;8.850;2023-02-15T05:58:03;87.45;;;25.13;;
3941;SDS011;1985;48.592;8.850;2023-02-15T06:00:29;91.70;;;25.25;;
3941;SDS011;1985;48.592;8.850;2023-02-15T06:02:55;75.20;;;22.63;;
3941;SDS011;1985;48.592;8.850;2023-02-15T06:05:20;81.97;;;22.77;;
3941;SDS011;1985;48.592;8.850;2023-02-15T06:07:46;58.58;;;18.02;;
3941;SDS011;1985;48.592;8.850;2023-02-15T06:10:12;49.50;;;17.38;;
3941;SDS011;1985;48.592;8.850;2023-02-15T06:12:37;50.50;;;17.30;;
3941;SDS011;1985;48.592;8.850;2023-02-15T06:15:03;51.73;;;15.23;;
3941;SDS011;1985;48.592;8.850;2023-02-15T06:17:29;32.25;;;13.07;;
3941;SDS011;1985;48.592;8.850;2023-02-15T06:19:55;43.63;;;13.60;;
3941;SDS011;1985;48.592;8.850;2023-02-15T06:22:21;31.05;;;11.77;;
3941;SDS011;1985;48.592;8.850;2023-02-15T06:24:46;31.80;;;11.70;;
3941;SDS011;1985;48.592;8.850;2023-02-15T06:27:12;36.53;;;13.00;;
3941;SDS011;1985;48.592;8.850;2023-02-15T06:29:38;30.57;;;12.17;;
3941;SDS011;1985;48.592;8.850;2023-02-15T06:32:04;28.27;;;11.30;;
3941;SDS011;1985;48.592;8.850;2023-02-15T06:34:30;31.55;;;12.25;;
3941;SDS011;1985;48.592;8.850;2023-02-15T06:36:55;29.63;;;12.05;;
3941;SDS011;1985;48.592;8.850;2023-02-15T06:39:21;30.60;;;11.50;;
3941;SDS011;1985;48.592;8.850;2023-02-15T06:41:47;35.58;;;11.85;;
3941;SDS011;1985;48.592;8.850;2023-02-15T06:44:12;28.60;;;11.68;;
3941;SDS011;1985;48.592;8.850;2023-02-15T06:46:38;26.40;;;10.80;;
3941;SDS011;1985;48.592;8.850;2023-02-15T06:49:04;23.95;;;10.05;;
3941;SDS011;1985;48.592;8.850;2023-02-15T06:51:30;28.20;;;9.67;;
3941;SDS011;1985;48.592;8.850;2023-02-15T06:53:55;29.77;;;10.30;;
3941;SDS011;1985;48.592;8.850;2023-02-15T06:56:21;22.35;;;9.60;;
3941;SDS011;1985;48.592;8.850;2023-02-15T06:58:47;21.38;;;9.20;;
3941;SDS011;1985;48.592;8.850;2023-02-15T07:01:14;25.80;;;9.07;;
3941;SDS011;1985;48.592;8.850;2023-02-15T07:03:41;24.73;;;9.75;;
3941;SDS011;1985;48.592;8.850;2023-02-15T07:06:06;25.38;;;9.15;;
3941;SDS011;1985;48.592;8.850;2023-02-15T07:08:34;24.65;;;10.07;;
3941;SDS011;1985;48.592;8.850;2023-02-15T07:11:00;28.02;;;11.63;;
3941;SDS011;1985;48.592;8.850;2023-02-15T07:13:45;27.77;;;11.57;;
3941;SDS011;1985;48.592;8.850;2023-02-15T07:16:11;29.45;;;10.82;;
3941;SDS011;1985;48.592;8.850;2023-02-15T07:18:37;24.40;;;10.37;;
3941;SDS011;1985;48.592;8.850;2023-02-15T07:21:04;28.42;;;10.80;;
3941;SDS011;1985;48.592;8.850;2023-02-15T07:23:33;26.92;;;11.40;;
3941;SDS011;1985;48.592;8.850;2023-02-15T07:26:02;27.13;;;10.48;;
3941;SDS011;1985;48.592;8.850;2023-02-15T07:28:28;25.60;;;10.13;;
3941;SDS011;1985;48.592;8.850;2023-02-15T07:30:54;24.10;;;9.48;;
3941;SDS011;1985;48.592;8.850;2023-02-15T07:33:19;25.93;;;11.03;;
3941;SDS011;1985;48.592;8.850;2023-02-15T07:35:48;26.25;;;9.65;;
3941;SDS011;1985;48.592;8.850;2023-02-15T07:38:14;27.13;;;10.00;;
3941;SDS011;1985;48.592;8.850;2023-02-15T07:40:40;24.98;;;9.98;;
3941;SDS011;1985;48.592;8.850;2023-02-15T07:43:05;24.23;;;9.55;;
3941;SDS011;1985;48.592;8.850;2023-02-15T07:45:31;25.33;;;10.00;;
3941;SDS011;1985;48.592;8.850;2023-02-15T07:47:57;25.70;;;9.95;;
3941;SDS011;1985;48.592;8.850;2023-02-15T07:50:22;23.00;;;9.73;;
3941;SDS011;1985;48.592;8.850;2023-02-15T07:52:48;23.97;;;9.40;;
3941;SDS011;1985;48.592;8.850;2023-02-15T07:55:14;22.63;;;9.63;;
3941;SDS011;1985;48.592;8.850;2023-02-15T07:57:43;22.97;;;10.07;;
3941;SDS011;1985;48.592;8.850;2023-02-15T08:00:10;20.57;;;9.00;;
3941;SDS011;1985;48.592;8.850;2023-02-15T08:02:37;21.08;;;9.20;;
3941;SDS011;1985;48.592;8.850;2023-02-15T08:05:04;21.20;;;8.70;;
3941;SDS011;1985;48.592;8.850;2023-02-15T08:07:30;24.48;;;9.95;;
3941;SDS011;1985;48.592;8.850;2023-02-15T08:09:55;20.73;;;8.63;;
3941;SDS011;1985;48.592;8.850;2023-02-15T08:12:21;22.53;;;8.93;;
3941;SDS011;1985;48.592;8.850;2023-02-15T08:14:46;20.73;;;8.00;;
3941;SDS011;1985;48.592;8.850;2023-02-15T08:17:12;19.77;;;7.50;;
3941;SDS011;1985;48.592;8.850;2023-02-15T08:19:38;21.87;;;8.60;;
3941;SDS011;1985;48.592;8.850;2023-02-15T08:22:07;20.67;;;8.00;;
3941;SDS011;1985;48.592;8.850;2023-02-15T08:24:36;21.52;;;8.05;;
3941;SDS011;1985;48.592;8.850;2023-02-15T08:27:02;20.90;;;8.02;;
3941;SDS011;1985;48.592;8.850;2023-02-15T08:29:30;20.77;;;7.53;;
3941;SDS011;1985;48.592;8.850;2023-02-15T08:31:57;23.80;;;8.60;;
3941;SDS011;1985;48.592;8.850;2023-02-15T08:34:27;21.00;;;8.23;;
3941;SDS011;1985;48.592;8.850;2023-02-15T08:36:53;19.70;;;7.83;;
3941;SDS011;1985;48.592;8.850;2023-02-15T08:39:19;21.17;;;7.90;;
3941;SDS011;1985;48.592;8.850;2023-02-15T08:41:46;24.75;;;8.65;;
3941;SDS011;1985;48.592;8.850;2023-02-15T08:44:12;20.77;;;8.73;;
3941;SDS011;1985;48.592;8.850;2023-02-15T08:46:41;21.00;;;8.47;;
3941;SDS011;1985;48.592;8.850;2023-02-15T08:49:08;20.27;;;7.82;;
3941;SDS011;1985;48.592;8.850;2023-02-15T08:51:35;22.23;;;8.07;;
3941;SDS011;1985;48.592;8.850;2023-02-15T08:54:04;23.50;;;7.47;;
3941;SDS011;1985;48.592;8.850;2023-02-15T08:56:35;20.88;;;8.43;;
3941;SDS011;1985;48.592;8.850;2023-02-15T08:59:03;21.40;;;8.27;;
3941;SDS011;1985;48.592;8.850;2023-02-15T09:01:30;20.33;;;7.28;;
3941;SDS011;1985;48.592;8.850;2023-02-15T09:04:02;20.75;;;7.65;;
3941;SDS011;1985;48.592;8.850;2023-02-15T09:06:30;18.55;;;7.80;;
3941;SDS011;1985;48.592;8.850;2023-02-15T09:08:56;18.60;;;7.35;;
3941;SDS011;1985;48.592;8.850;2023-02-15T09:11:23;17.65;;;7.70;;
3941;SDS011;1985;48.592;8.850;2023-02-15T09:13:58;19.95;;;7.50;;
3941;SDS011;1985;48.592;8.850;2023-02-15T09:16:26;18.47;;;7.00;;
3941;SDS011;1985;48.592;8.850;2023-02-15T09:18:54;19.63;;;6.70;;
3941;SDS011;1985;48.592;8.850;2023-02-15T09:21:22;18.35;;;7.00;;
3941;SDS011;1985;48.592;8.850;2023-02-15T09:23:50;19.20;;;7.10;;
3941;SDS011;1985;48.592;8.850;2023-02-15T09:26:18;19.00;;;7.60;;
3941;SDS011;1985;48.592;8.850;2023-02-15T09:28:45;19.52;;;7.97;;
3941;SDS011;1985;48.592;8.850;2023-02-15T09:31:14;21.00;;;8.43;;
3941;SDS011;1985;48.592;8.850;2023-02-15T09:33:42;20.48;;;8.18;;
3941;SDS011;1985;48.592;8.850;2023-02-15T09:36:17;23.47;;;10.70;;
3941;SDS011;1985;48.592;8.850;2023-02-15T09:38:43;24.52;;;10.98;;
3941;SDS011;1985;48.592;8.850;2023-02-15T09:44:04;26.23;;;10.80;;
3941;SDS011;1985;48.592;8.850;2023-02-15T10:00:13;26.35;;;9.63;;
3941;SDS011;1985;48.592;8.850;2023-02-15T10:03:02;20.75;;;8.20;;
3941;SDS011;1985;48.592;8.850;2023-02-15T10:27:48;20.00;;;7.32;;
3941;SDS011;1985;48.592;8.850;2023-02-15T10:54:22;20.13;;;8.27;;
3941;SDS011;1985;48.592;8.850;2023-02-15T10:59:56;19.15;;;8.20;;
3941;SDS011;1985;48.592;8.850;2023-02-15T11:05:39;21.48;;;8.60;;
3941;SDS011;1985;48.592;8.850;2023-02-15T11:08:19;19.95;;;7.93;;
3941;SDS011;1985;48.592;8.850;2023-02-15T11:10:58;18.27;;;7.88;;
3941;SDS011;1985;48.592;8.850;2023-02-15T11:13:27;18.13;;;7.97;;
3941;SDS011;1985;48.592;8.850;2023-02-15T11:16:11;18.95;;;8.30;;
3941;SDS011;1985;48.592;8.850;2023-02-15T11:21:20;18.57;;;8.03;;
3941;SDS011;1985;48.592;8.850;2023-02-15T11:23:49;22.35;;;7.97;;
3941;SDS011;1985;48.592;8.850;2023-02-15T11:26:21;19.15;;;7.47;;
3941;SDS011;1985;48.592;8.850;2023-02-15T11:28:54;18.57;;;8.43;;
3941;SDS011;1985;48.592;8.850;2023-02-15T11:31:29;19.63;;;8.70;;
3941;SDS011;1985;48.592;8.850;2023-02-15T11:34:11;22.77;;;8.40;;
3941;SDS011;1985;48.592;8.850;2023-02-15T11:36:45;23.00;;;8.43;;
3941;SDS011;1985;48.592;8.850;2023-02-15T11:39:15;19.48;;;8.63;;
3941;SDS011;1985;48.592;8.850;2023-02-15T11:41:46;19.63;;;8.23;;
3941;SDS011;1985;48.592;8.850;2023-02-15T11:46:42;17.43;;;8.10;;
3941;SDS011;1985;48.592;8.850;2023-02-15T11:51:56;16.13;;;7.40;;
3941;SDS011;1985;48.592;8.850;2023-02-15T11:54:26;19.35;;;8.05;;
3941;SDS011;1985;48.592;8.850;2023-02-15T11:57:03;20.63;;;8.13;;
3941;SDS011;1985;48.592;8.850;2023-02-15T12:00:01;16.40;;;7.50;;
3941;SDS011;1985;48.592;8.850;2023-02-15T12:02:32;20.60;;;7.72;;
3941;SDS011;1985;48.592;8.850;2023-02-15T12:05:01;18.83;;;7.80;;
3941;SDS011;1985;48.592;8.850;2023-02-15T12:07:34;20.90;;;7.93;;
3941;SDS011;1985;48.592;8.850;2023-02-15T12:10:25;18.00;;;8.35;;
3941;SDS011;1985;48.592;8.850;2023-02-15T12:13:09;20.08;;;8.80;;
3941;SDS011;1985;48.592;8.850;2023-02-15T12:15:35;17.47;;;8.00;;
3941;SDS011;1985;48.592;8.850;2023-02-15T12:18:01;18.33;;;7.90;;
3941;SDS011;1985;48.592;8.850;2023-02-15T12:20:33;18.02;;;7.93;;
3941;SDS011;1985;48.592;8.850;2023-02-15T12:23:04;20.77;;;8.90;;
3941;SDS011;1985;48.592;8.850;2023-02-15T12:28:18;16.83;;;7.93;;
3941;SDS011;1985;48.592;8.850;2023-02-15T12:30:52;18.38;;;8.38;;
3941;SDS011;1985;48.592;8.850;2023-02-15T12:33:36;18.53;;;7.53;;
3941;SDS011;1985;48.592;8.850;2023-02-15T12:36:15;15.63;;;6.47;;
3941;SDS011;1985;48.592;8.850;2023-02-15T12:38:49;15.70;;;6.32;;
3941;SDS011;1985;48.592;8.850;2023-02-15T12:41:29;16.67;;;6.43;;
3941;SDS011;1985;48.592;8.850;2023-02-15T12:44:14;14.10;;;5.93;;
3941;SDS011;1985;48.592;8.850;2023-02-15T12:46:55;16.75;;;6.78;;
3941;SDS011;1985;48.592;8.850;2023-02-15T12:49:24;17.23;;;7.03;;
3941;SDS011;1985;48.592;8.850;2023-02-15T12:51:54;15.13;;;6.35;;
3941;SDS011;1985;48.592;8.850;2023-02-15T12:54:33;16.50;;;6.70;;
3941;SDS011;1985;48.592;8.850;2023-02-15T12:57:23;16.60;;;5.43;;
3941;SDS011;1985;48.592;8.850;2023-02-15T12:59:47;16.75;;;6.28;;
3941;SDS011;1985;48.592;8.850;2023-02-15T13:02:25;13.60;;;5.50;;
3941;SDS011;1985;48.592;8.850;2023-02-15T13:08:01;14.70;;;4.80;;
3941;SDS011;1985;48.592;8.850;2023-02-15T13:10:36;13.48;;;4.40;;
3941;SDS011;1985;48.592;8.850;2023-02-15T13:13:11;15.57;;;4.20;;
3941;SDS011;1985;48.592;8.850;2023-02-15T13:15:46;11.82;;;3.90;;
3941;SDS011;1985;48.592;8.850;2023-02-15T13:18:37;14.15;;;4.47;;
3941;SDS011;1985;48.592;8.850;2023-02-15T13:21:09;13.83;;;3.60;;
3941;SDS011;1985;48.592;8.850;2023-02-15T13:23:36;11.10;;;3.63;;
3941;SDS011;1985;48.592;8.850;2023-02-15T13:26:04;10.20;;;3.20;;
3941;SDS011;1985;48.592;8.850;2023-02-15T13:28:40;10.23;;;2.90;;
3941;SDS011;1985;48.592;8.850;2023-02-15T13:31:20;11.25;;;2.92;;
3941;SDS011;1985;48.592;8.850;2023-02-15T13:33:51;10.27;;;2.83;;
3941;SDS011;1985;48.592;8.850;2023-02-15T13:44:53;11.43;;;1.90;;
3941;SDS011;1985;48.592;8.850;2023-02-15T13:47:44;10.30;;;2.42;;
3941;SDS011;1985;48.592;8.850;2023-02-15T13:55:51;10.90;;;2.40;;
3941;SDS011;1985;48.592;8.850;2023-02-15T14:01:38;9.75;;;2.03;;
3941;SDS011;1985;48.592;8.850;2023-02-15T14:21:05;11.07;;;2.60;;
3941;SDS011;1985;48.592;8.850;2023-02-15T14:23:52;11.40;;;3.10;;
3941;SDS011;1985;48.592;8.850;2023-02-15T14:26:29;15.15;;;4.60;;
3941;SDS011;1985;48.592;8.850;2023-02-15T14:29:16;16.85;;;4.45;;
3941;SDS011;1985;48.592;8.850;2023-02-15T14:31:53;13.85;;;4.63;;
3941;SDS011;1985;48.592;8.850;2023-02-15T14:37:06;14.82;;;4.68;;
3941;SDS011;1985;48.592;8.850;2023-02-15T14:39:51;14.52;;;4.00;;
3941;SDS011;1985;48.592;8.850;2023-02-15T14:42:52;14.30;;;3.92;;
3941;SDS011;1985;48.592;8.850;2023-02-15T14:48:09;13.33;;;4.00;;
3941;SDS011;1985;48.592;8.850;2023-02-15T14:50:41;13.43;;;4.00;;
3941;SDS011;1985;48.592;8.850;2023-02-15T14:58:36;12.60;;;4.20;;
3941;SDS011;1985;48.592;8.850;2023-02-15T15:01:06;16.25;;;4.05;;
3941;SDS011;1985;48.592;8.850;2023-02-15T15:03:34;17.20;;;3.80;;
3941;SDS011;1985;48.592;8.850;2023-02-15T15:06:02;13.75;;;3.92;;
3941;SDS011;1985;48.592;8.850;2023-02-15T15:08:33;13.68;;;4.50;;
3941;SDS011;1985;48.592;8.850;2023-02-15T15:14:02;15.20;;;5.00;;
3941;SDS011;1985;48.592;8.850;2023-02-15T15:18:59;14.57;;;4.22;;
3941;SDS011;1985;48.592;8.850;2023-02-15T15:35:45;14.05;;;4.00;;
3941;SDS011;1985;48.592;8.850;2023-02-15T15:49:32;15.33;;;4.30;;
3941;SDS011;1985;48.592;8.850;2023-02-15T15:52:02;14.05;;;4.72;;
3941;SDS011;1985;48.592;8.850;2023-02-15T15:54:40;21.65;;;4.60;;
3941;SDS011;1985;48.592;8.850;2023-02-15T15:57:12;13.98;;;4.07;;
3941;SDS011;1985;48.592;8.850;2023-02-15T16:00:02;13.68;;;4.50;;
3941;SDS011;1985;48.592;8.850;2023-02-15T16:02:28;14.23;;;4.50;;
3941;SDS011;1985;48.592;8.850;2023-02-15T16:04:54;15.37;;;4.33;;
3941;SDS011;1985;48.592;8.850;2023-02-15T16:07:30;14.25;;;4.18;;
3941;SDS011;1985;48.592;8.850;2023-02-15T16:12:27;38.80;;;5.80;;
3941;SDS011;1985;48.592;8.850;2023-02-15T16:14:55;37.58;;;6.55;;
3941;SDS011;1985;48.592;8.850;2023-02-15T16:17:25;17.93;;;4.33;;
3941;SDS011;1985;48.592;8.850;2023-02-15T16:20:01;24.27;;;4.93;;
3941;SDS011;1985;48.592;8.850;2023-02-15T16:22:32;21.15;;;5.95;;
3941;SDS011;1985;48.592;8.850;2023-02-15T16:27:46;23.70;;;7.15;;
3941;SDS011;1985;48.592;8.850;2023-02-15T16:30:31;48.20;;;18.88;;
3941;SDS011;1985;48.592;8.850;2023-02-15T16:35:35;28.15;;;11.23;;
3941;SDS011;1985;48.592;8.850;2023-02-15T16:38:02;27.55;;;10.05;;
3941;SDS011;1985;48.592;8.850;2023-02-15T16:43:04;27.77;;;7.90;;
3941;SDS011;1985;48.592;8.850;2023-02-15T16:45:35;18.73;;;7.07;;
3941;SDS011;1985;48.592;8.850;2023-02-15T16:48:05;21.50;;;7.38;;
3941;SDS011;1985;48.592;8.850;2023-02-15T16:50:36;26.73;;;8.57;;
3941;SDS011;1985;48.592;8.850;2023-02-15T16:53:03;21.17;;;7.07;;
3941;SDS011;1985;48.592;8.850;2023-02-15T16:55:38;17.15;;;7.68;;
3941;SDS011;1985;48.592;8.850;2023-02-15T16:58:07;20.15;;;6.80;;
3941;SDS011;1985;48.592;8.850;2023-02-15T17:00:39;17.70;;;6.55;;
3941;SDS011;1985;48.592;8.850;2023-02-15T17:13:23;20.30;;;7.03;;
3941;SDS011;1985;48.592;8.850;2023-02-15T17:18:25;23.40;;;7.30;;
3941;SDS011;1985;48.592;8.850;2023-02-15T17:20:53;28.73;;;8.20;;
3941;SDS011;1985;48.592;8.850;2023-02-15T17:23:22;20.70;;;7.50;;
3941;SDS011;1985;48.592;8.850;2023-02-15T17:25:57;24.63;;;8.20;;
3941;SDS011;1985;48.592;8.850;2023-02-15T17:28:24;18.38;;;7.53;;
3941;SDS011;1985;48.592;8.850;2023-02-15T17:30:52;20.23;;;8.30;;
3941;SDS011;1985;48.592;8.850;2023-02-15T17:33:28;25.50;;;10.10;;
3941;SDS011;1985;48.592;8.850;2023-02-15T17:36:04;23.88;;;9.52;;
3941;SDS011;1985;48.592;8.850;2023-02-15T17:38:39;29.05;;;11.43;;
3941;SDS011;1985;48.592;8.850;2023-02-15T17:41:28;27.40;;;10.23;;
3941;SDS011;1985;48.592;8.850;2023-02-15T17:43:55;25.63;;;10.05;;
3941;SDS011;1985;48.592;8.850;2023-02-15T17:46:21;23.27;;;9.68;;
3941;SDS011;1985;48.592;8.850;2023-02-15T17:48:49;24.02;;;9.20;;
3941;SDS011;1985;48.592;8.850;2023-02-15T17:51:16;19.95;;;8.05;;
3941;SDS011;1985;48.592;8.850;2023-02-15T17:53:44;21.35;;;8.57;;
3941;SDS011;1985;48.592;8.850;2023-02-15T17:56:30;21.95;;;7.85;;
3941;SDS011;1985;48.592;8.850;2023-02-15T17:59:00;21.00;;;8.90;;
3941;SDS011;1985;48.592;8.850;2023-02-15T18:01:25;21.67;;;7.60;;
3941;SDS011;1985;48.592;8.850;2023-02-15T18:04:11;19.75;;;7.78;;
3941;SDS011;1985;48.592;8.850;2023-02-15T18:06:57;21.98;;;9.10;;
3941;SDS011;1985;48.592;8.850;2023-02-15T18:09:42;24.20;;;8.80;;
3941;SDS011;1985;48.592;8.850;2023-02-15T18:12:28;23.85;;;9.25;;
3941;SDS011;1985;48.592;8.850;2023-02-15T18:15:04;22.42;;;8.40;;
3941;SDS011;1985;48.592;8.850;2023-02-15T18:17:35;27.90;;;9.95;;
3941;SDS011;1985;48.592;8.850;2023-02-15T18:20:32;28.50;;;10.40;;
3941;SDS011;1985;48.592;8.850;2023-02-15T18:23:00;26.23;;;10.53;;
3941;SDS011;1985;48.592;8.850;2023-02-15T18:25:26;27.65;;;10.52;;
3941;SDS011;1985;48.592;8.850;2023-02-15T18:27:51;24.80;;;10.30;;
3941;SDS011;1985;48.592;8.850;2023-02-15T18:30:18;24.77;;;9.63;;
3941;SDS011;1985;48.592;8.850;2023-02-15T18:32:45;25.95;;;9.20;;
3941;SDS011;1985;48.592;8.850;2023-02-15T18:35:15;26.20;;;10.35;;
3941;SDS011;1985;48.592;8.850;2023-02-15T18:37:46;22.25;;;8.80;;
3941;SDS011;1985;48.592;8.850;2023-02-15T18:40:13;21.40;;;7.78;;
3941;SDS011;1985;48.592;8.850;2023-02-15T18:42:52;20.10;;;8.07;;
3941;SDS011;1985;48.592;8.850;2023-02-15T18:45:24;21.45;;;8.15;;
3941;SDS011;1985;48.592;8.850;2023-02-15T18:47:56;20.42;;;8.05;;
3941;SDS011;1985;48.592;8.850;2023-02-15T18:50:22;22.67;;;8.90;;
3941;SDS011;1985;48.592;8.850;2023-02-15T18:52:51;22.38;;;8.52;;